createdAt,value
2023-02-17T00:01:31.297Z,8.80
2023-02-17T00:03:59.190Z,8.70
2023-02-17T00:06:30.495Z,8.70
2023-02-17T00:08:58.203Z,8.70
2023-02-17T00:11:28.542Z,8.70
2023-02-17T00:13:56.511Z,8.70
2023-02-17T00:16:25.974Z,8.70
2023-02-17T00:18:55.315Z,8.70
2023-02-17T00:21:27.353Z,8.60
2023-02-17T00:23:54.780Z,8.60
2023-02-17T00:26:23.762Z,8.60
2023-02-17T00:28:53.539Z,8.60
2023-02-17T00:31:22.816Z,8.50
2023-02-17T00:33:55.461Z,8.50
2023-02-17T00:36:22.500Z,8.50
2023-02-17T00:38:50.324Z,8.50
2023-02-17T00:41:18.469Z,8.50
2023-02-17T00:43:45.921Z,8.50
2023-02-17T00:46:13.346Z,8.50
2023-02-17T00:48:40.557Z,8.50
2023-02-17T00:51:11.964Z,8.50
2023-02-17T00:53:39.103Z,8.60
2023-02-17T00:56:07.495Z,8.50
2023-02-17T00:58:37.851Z,8.50
2023-02-17T01:01:05.115Z,8.50
2023-02-17T01:03:32.016Z,8.50
2023-02-17T01:05:59.359Z,8.50
2023-02-17T01:08:29.349Z,8.50
2023-02-17T01:10:57.220Z,8.50
2023-02-17T01:13:24.567Z,8.50
2023-02-17T01:15:55.096Z,8.50
2023-02-17T01:18:24.548Z,8.50
2023-02-17T01:20:54.480Z,8.50
2023-02-17T01:23:21.407Z,8.40
2023-02-17T01:25:49.024Z,8.50
2023-02-17T01:28:20.264Z,8.50
2023-02-17T01:30:48.601Z,8.40
2023-02-17T01:33:20.192Z,8.40
2023-02-17T01:35:46.978Z,8.40
2023-02-17T01:38:16.077Z,8.40
2023-02-17T01:40:49.920Z,8.40
2023-02-17T01:43:20.068Z,8.40
2023-02-17T01:45:50.888Z,8.40
2023-02-17T01:48:21.296Z,8.40
2023-02-17T01:51:04.401Z,8.40
2023-02-17T01:53:46.120Z,8.40
2023-02-17T01:56:16.727Z,8.40
2023-02-17T01:58:49.457Z,8.40
2023-02-17T02:01:17.856Z,8.40
2023-02-17T02:03:45.265Z,8.40
2023-02-17T02:06:20.436Z,8.40
2023-02-17T02:09:03.835Z,8.40
2023-02-17T02:11:30.858Z,8.40
2023-02-17T02:14:01.483Z,8.40
2023-02-17T02:16:41.631Z,8.30
2023-02-17T02:19:37.048Z,8.30
2023-02-17T02:22:22.690Z,8.30
2023-02-17T02:24:57.198Z,8.30
2023-02-17T02:27:51.797Z,8.30
2023-02-17T02:30:45.461Z,8.30
2023-02-17T02:33:16.898Z,8.30
2023-02-17T02:35:51.544Z,8.30
2023-02-17T02:38:36.945Z,8.30
2023-02-17T02:41:22.324Z,8.30
2023-02-17T02:43:53.842Z,8.20
2023-02-17T02:46:21.098Z,8.20
2023-02-17T02:48:49.573Z,8.20
2023-02-17T02:51:31.220Z,8.20
2023-02-17T02:54:23.681Z,8.20
2023-02-17T02:57:02.626Z,8.20
2023-02-17T02:59:58.856Z,8.20
2023-02-17T03:02:52.887Z,8.20
2023-02-17T03:06:14.824Z,8.20
2023-02-17T03:08:53.348Z,8.20
2023-02-17T03:11:34.208Z,8.20
2023-02-17T03:14:09.691Z,8.20
2023-02-17T03:16:38.307Z,8.20
2023-02-17T03:19:06.448Z,8.20
2023-02-17T03:21:42.345Z,8.20
2023-02-17T03:24:09.733Z,8.20
2023-02-17T03:26:36.688Z,8.20
2023-02-17T03:29:04.198Z,8.20
2023-02-17T03:31:31.390Z,8.20
2023-02-17T03:34:01.122Z,8.20
2023-02-17T03:36:29.861Z,8.20
2023-02-17T03:38:57.398Z,8.20
2023-02-17T03:41:24.714Z,8.20
2023-02-17T03:43:53.710Z,8.20
2023-02-17T03:46:23.874Z,8.10
2023-02-17T03:48:53.070Z,8.10
2023-02-17T03:51:23.129Z,8.10
2023-02-17T03:53:52.837Z,8.20
2023-02-17T03:56:19.977Z,8.20
2023-02-17T03:58:47.117Z,8.20
2023-02-17T04:01:14.829Z,8.20
2023-02-17T04:03:42.013Z,8.10
2023-02-17T04:06:10.234Z,8.20
2023-02-17T04:08:37.711Z,8.20
2023-02-17T04:11:06.291Z,8.10
2023-02-17T04:13:34.308Z,8.10
2023-02-17T04:16:02.008Z,8.10
2023-02-17T04:18:28.958Z,8.10
2023-02-17T04:20:58.108Z,8.10
2023-02-17T04:23:25.391Z,8.10
2023-02-17T04:25:54.583Z,8.10
2023-02-17T04:28:22.197Z,8.10
2023-02-17T04:30:50.685Z,8.10
2023-02-17T04:33:18.664Z,8.10
2023-02-17T04:35:46.772Z,8.10
2023-02-17T04:38:15.981Z,8.10
2023-02-17T04:40:45.445Z,8.10
2023-02-17T04:43:12.416Z,8.10
2023-02-17T04:45:41.441Z,8.10
2023-02-17T04:48:08.253Z,8.10
2023-02-17T04:50:35.079Z,8.10
2023-02-17T04:53:04.162Z,8.10
2023-02-17T04:55:31.386Z,8.20
2023-02-17T04:57:58.269Z,8.20
2023-02-17T05:00:25.528Z,8.20
2023-02-17T05:02:52.561Z,8.20
2023-02-17T05:05:19.537Z,8.20
2023-02-17T05:07:46.935Z,8.20
2023-02-17T05:10:27.450Z,8.20
2023-02-17T05:12:54.263Z,8.20
2023-02-17T05:15:21.156Z,8.20
2023-02-17T05:17:48.012Z,8.20
2023-02-17T05:20:14.990Z,8.20
2023-02-17T05:22:41.885Z,8.20
2023-02-17T05:25:13.536Z,8.20
2023-02-17T05:27:40.412Z,8.20
2023-02-17T05:30:07.799Z,8.20
2023-02-17T05:32:34.700Z,8.20
2023-02-17T05:35:06.159Z,8.20
2023-02-17T05:37:33.328Z,8.20
2023-02-17T05:40:02.282Z,8.20
2023-02-17T05:42:29.242Z,8.20
2023-02-17T05:44:56.413Z,8.20
2023-02-17T05:47:28.537Z,8.20
2023-02-17T05:49:55.335Z,8.20
2023-02-17T05:52:24.561Z,8.20
2023-02-17T05:54:51.392Z,8.20
2023-02-17T05:57:20.541Z,8.30
2023-02-17T05:59:49.961Z,8.30
2023-02-17T06:02:16.817Z,8.30
2023-02-17T06:04:45.942Z,8.30
2023-02-17T06:07:12.843Z,8.30
2023-02-17T06:09:39.638Z,8.30
2023-02-17T06:12:08.914Z,8.30
2023-02-17T06:14:35.762Z,8.30
2023-02-17T06:17:03.988Z,8.30
2023-02-17T06:19:33.239Z,8.30
2023-02-17T06:22:00.138Z,8.30
2023-02-17T06:24:29.428Z,8.30
2023-02-17T06:29:39.163Z,8.30
2023-02-17T06:32:08.615Z,8.30
2023-02-17T06:34:35.450Z,8.40
2023-02-17T06:37:02.359Z,8.40
2023-02-17T06:39:29.216Z,8.40
2023-02-17T06:41:56.074Z,8.40
2023-02-17T06:44:25.371Z,8.40
2023-02-17T06:46:56.830Z,8.40
2023-02-17T06:49:23.723Z,8.40
2023-02-17T06:51:50.549Z,8.40
2023-02-17T06:54:17.632Z,8.40
2023-02-17T06:56:44.572Z,8.50
2023-02-17T06:59:11.423Z,8.50
2023-02-17T07:01:39.033Z,8.50
2023-02-17T07:04:06.008Z,8.50
2023-02-17T07:06:32.842Z,8.60
2023-02-17T07:09:00.817Z,8.60
2023-02-17T07:11:31.265Z,8.60
2023-02-17T07:13:58.470Z,8.60
2023-02-17T07:16:27.432Z,8.70
2023-02-17T07:18:54.265Z,8.70
2023-02-17T07:21:21.215Z,8.70
2023-02-17T07:23:50.559Z,8.70
2023-02-17T07:26:19.500Z,8.70
2023-02-17T07:28:48.565Z,8.80
2023-02-17T07:31:17.321Z,8.80
2023-02-17T07:33:48.553Z,8.80
2023-02-17T07:36:18.760Z,8.80
2023-02-17T07:38:45.996Z,8.90
2023-02-17T07:41:18.062Z,8.90
2023-02-17T07:43:46.131Z,8.90
2023-02-17T07:46:18.262Z,9.00
2023-02-17T07:48:47.776Z,9.00
2023-02-17T07:51:17.456Z,9.00
2023-02-17T07:53:49.717Z,9.10
2023-02-17T07:56:24.079Z,9.10
2023-02-17T07:58:50.961Z,9.10
2023-02-17T08:01:23.733Z,9.20
2023-02-17T08:03:56.804Z,9.20
2023-02-17T08:06:27.499Z,9.20
2023-02-17T08:09:13.264Z,9.20
2023-02-17T08:11:59.706Z,9.20
2023-02-17T08:14:31.547Z,9.20
2023-02-17T08:17:00.698Z,9.20
2023-02-17T08:19:39.774Z,9.30
2023-02-17T08:22:17.664Z,9.30
2023-02-17T08:24:44.706Z,9.30
2023-02-17T08:27:11.600Z,9.30
2023-02-17T08:29:38.437Z,9.40
2023-02-17T08:32:05.551Z,9.40
2023-02-17T08:34:37.784Z,9.40
2023-02-17T08:37:08.210Z,9.40
2023-02-17T08:39:36.392Z,9.40
2023-02-17T08:42:04.475Z,9.40
2023-02-17T08:44:33.305Z,9.40
2023-02-17T08:47:02.547Z,9.40
2023-02-17T08:49:32.258Z,9.40
2023-02-17T08:52:02.549Z,9.40
2023-02-17T08:54:32.040Z,9.40
2023-02-17T08:56:58.915Z,9.40
2023-02-17T08:59:25.956Z,9.40
2023-02-17T09:01:59.673Z,9.40
2023-02-17T09:04:26.760Z,9.40
2023-02-17T09:06:56.673Z,9.40
2023-02-17T09:09:28.471Z,9.50
2023-02-17T09:11:58.230Z,9.40
2023-02-17T09:14:25.440Z,9.50
2023-02-17T09:16:53.722Z,9.50
2023-02-17T09:19:26.504Z,9.50
2023-02-17T09:21:53.712Z,9.50
2023-02-17T09:24:25.434Z,9.50
2023-02-17T09:26:52.624Z,9.50
2023-02-17T09:29:19.615Z,9.50
2023-02-17T09:31:46.714Z,9.50
2023-02-17T09:34:15.809Z,9.50
2023-02-17T09:36:50.139Z,9.60
2023-02-17T09:39:17.075Z,9.60
2023-02-17T09:41:49.982Z,9.60
2023-02-17T09:44:25.847Z,9.60
2023-02-17T09:47:01.771Z,9.50
2023-02-17T09:49:37.364Z,9.60
2023-02-17T09:52:36.056Z,9.60
2023-02-17T09:55:27.857Z,9.60
2023-02-17T09:58:21.650Z,9.60
2023-02-17T10:00:55.603Z,9.60
2023-02-17T10:03:37.435Z,9.60
2023-02-17T10:06:10.288Z,9.60
2023-02-17T10:09:04.105Z,9.60
2023-02-17T10:11:41.161Z,9.60
2023-02-17T10:14:31.952Z,9.60
2023-02-17T10:17:20.843Z,9.70
2023-02-17T10:20:13.738Z,9.70
2023-02-17T10:22:45.166Z,9.70
2023-02-17T10:25:19.262Z,9.70
2023-02-17T10:27:55.691Z,9.70
2023-02-17T10:30:33.919Z,9.70
2023-02-17T10:33:29.164Z,9.80
2023-02-17T10:36:35.079Z,9.80
2023-02-17T10:39:11.891Z,9.80
2023-02-17T10:41:42.515Z,9.90
2023-02-17T10:44:16.647Z,9.90
2023-02-17T10:46:44.696Z,9.90
2023-02-17T10:49:42.253Z,9.90
2023-02-17T10:52:19.113Z,9.90
2023-02-17T10:54:52.798Z,9.90
2023-02-17T10:57:21.712Z,10.00
2023-02-17T10:59:50.400Z,10.00
2023-02-17T11:02:28.036Z,10.00
2023-02-17T11:04:55.166Z,10.00
2023-02-17T11:07:34.108Z,10.00
2023-02-17T11:10:25.881Z,10.10
2023-02-17T11:12:58.063Z,10.10
2023-02-17T11:15:47.296Z,10.10
2023-02-17T11:18:29.643Z,10.10
2023-02-17T11:21:18.793Z,10.20
2023-02-17T11:24:03.177Z,10.20
2023-02-17T11:26:38.236Z,10.20
2023-02-17T11:29:32.726Z,10.20
2023-02-17T11:32:10.952Z,10.30
2023-02-17T11:34:41.381Z,10.30
2023-02-17T11:37:29.149Z,10.30
2023-02-17T11:39:59.561Z,10.30
2023-02-17T11:42:41.564Z,10.40
2023-02-17T11:45:28.685Z,10.40
2023-02-17T11:48:27.186Z,10.40
2023-02-17T11:51:18.303Z,10.50
2023-02-17T11:54:12.694Z,10.50
2023-02-17T11:56:45.961Z,10.50
2023-02-17T11:59:42.131Z,10.50
2023-02-17T12:02:12.054Z,10.60
2023-02-17T12:05:10.843Z,10.60
2023-02-17T12:07:52.808Z,10.60
2023-02-17T12:10:58.051Z,10.60
2023-02-17T12:13:38.644Z,10.70
2023-02-17T12:16:16.809Z,10.70
2023-02-17T12:18:55.722Z,10.70
2023-02-17T12:21:34.005Z,10.70
2023-02-17T12:24:28.250Z,10.80
2023-02-17T12:27:01.055Z,10.80
2023-02-17T12:30:05.725Z,10.90
2023-02-17T12:32:57.617Z,10.90
2023-02-17T12:35:55.136Z,10.90
2023-02-17T12:38:41.566Z,11.00
2023-02-17T12:41:29.930Z,11.00
2023-02-17T12:44:11.852Z,11.00
2023-02-17T12:46:47.662Z,11.10
2023-02-17T12:49:19.373Z,11.20
2023-02-17T12:52:01.512Z,11.30
2023-02-17T12:54:38.977Z,11.30
2023-02-17T12:57:08.666Z,11.40
2023-02-17T12:59:35.582Z,11.40
2023-02-17T13:02:05.690Z,11.40
2023-02-17T13:04:34.634Z,11.40
2023-02-17T13:07:38.248Z,11.40
2023-02-17T13:10:18.439Z,11.40
2023-02-17T13:12:56.790Z,11.40
2023-02-17T13:15:35.341Z,11.50
2023-02-17T13:18:12.181Z,11.50
2023-02-17T13:20:57.521Z,11.50
2023-02-17T13:23:28.217Z,11.60
2023-02-17T13:26:10.563Z,11.60
2023-02-17T13:28:43.424Z,11.60
2023-02-17T13:31:22.672Z,11.60
2023-02-17T13:33:56.120Z,11.70
2023-02-17T13:36:29.001Z,11.70
2023-02-17T13:39:01.768Z,11.80
2023-02-17T13:41:46.553Z,11.80
2023-02-17T13:44:33.831Z,11.80
2023-02-17T13:47:18.326Z,11.90
2023-02-17T13:49:59.485Z,11.90
2023-02-17T13:52:27.958Z,11.90
2023-02-17T13:54:56.797Z,11.90
2023-02-17T13:57:29.897Z,11.90
2023-02-17T14:00:10.014Z,11.90
2023-02-17T14:02:57.434Z,11.90
2023-02-17T14:05:38.006Z,12.00
2023-02-17T14:08:12.071Z,12.00
2023-02-17T14:10:39.438Z,12.00
2023-02-17T14:13:10.720Z,12.00
2023-02-17T14:15:50.897Z,12.00
2023-02-17T14:18:37.978Z,12.00
2023-02-17T14:21:08.163Z,12.00
2023-02-17T14:23:52.627Z,12.10
2023-02-17T14:26:39.466Z,12.10
2023-02-17T14:29:08.716Z,12.10
2023-02-17T14:31:50.440Z,12.10
2023-02-17T14:34:20.529Z,12.20
2023-02-17T14:36:50.056Z,12.20
2023-02-17T14:39:17.101Z,12.20
2023-02-17T14:41:44.248Z,12.30
2023-02-17T14:44:11.273Z,12.30
2023-02-17T14:46:40.589Z,12.30
2023-02-17T14:49:07.498Z,12.20
2023-02-17T14:51:38.343Z,12.30
2023-02-17T14:54:16.776Z,12.20
2023-02-17T14:57:07.880Z,12.20
2023-02-17T14:59:34.883Z,12.10
2023-02-17T15:02:01.902Z,12.10
2023-02-17T15:04:28.871Z,12.00
2023-02-17T15:07:00.214Z,11.90
2023-02-17T15:09:31.376Z,11.90
2023-02-17T15:11:58.630Z,11.90
2023-02-17T15:14:28.418Z,11.80
2023-02-17T15:16:55.259Z,11.80
2023-02-17T15:19:22.164Z,11.70
2023-02-17T15:21:57.209Z,11.70
2023-02-17T15:24:29.868Z,11.70
2023-02-17T15:26:59.562Z,11.70
2023-02-17T15:29:29.432Z,11.70
2023-02-17T15:31:59.211Z,11.70
2023-02-17T15:34:32.552Z,11.70
2023-02-17T15:37:00.734Z,11.70
2023-02-17T15:39:27.948Z,11.60
2023-02-17T15:42:04.466Z,11.70
2023-02-17T15:47:21.161Z,11.60
2023-02-17T15:49:50.525Z,11.60
2023-02-17T15:52:17.471Z,11.60
2023-02-17T15:54:48.352Z,11.60
2023-02-17T15:57:24.438Z,11.60
2023-02-17T15:59:57.607Z,11.60
2023-02-17T16:02:25.928Z,11.60
2023-02-17T16:04:54.973Z,11.60
2023-02-17T16:07:21.943Z,11.60
2023-02-17T16:09:51.004Z,11.60
2023-02-17T16:12:27.047Z,11.60
2023-02-17T16:14:57.918Z,11.60
2023-02-17T16:17:26.269Z,11.60
2023-02-17T16:19:55.417Z,11.60
2023-02-17T16:22:25.093Z,11.60
2023-02-17T16:24:54.550Z,11.60
2023-02-17T16:27:21.523Z,11.60
2023-02-17T16:29:55.401Z,11.60
2023-02-17T16:32:22.468Z,11.60
2023-02-17T16:34:49.411Z,11.60
2023-02-17T16:37:17.850Z,11.60
2023-02-17T16:39:45.179Z,11.60
2023-02-17T16:42:15.596Z,11.60
2023-02-17T16:44:42.774Z,11.60
2023-02-17T16:47:21.015Z,11.60
2023-02-17T16:49:48.410Z,11.60
2023-02-17T16:52:27.771Z,11.60
2023-02-17T16:54:54.932Z,11.60
2023-02-17T16:57:22.311Z,11.60
2023-02-17T16:59:49.307Z,11.60
2023-02-17T17:02:20.258Z,11.60
2023-02-17T17:04:48.571Z,11.60
2023-02-17T17:07:16.107Z,11.70
2023-02-17T17:09:52.382Z,11.60
2023-02-17T17:12:25.335Z,11.60
2023-02-17T17:14:52.264Z,11.60
2023-02-17T17:17:19.304Z,11.60
2023-02-17T17:19:48.461Z,11.60
2023-02-17T17:22:15.281Z,11.50
2023-02-17T17:29:01.594Z,11.50
2023-02-17T17:31:28.912Z,11.50
2023-02-17T17:33:58.037Z,11.40
2023-02-17T17:36:53.626Z,11.40
2023-02-17T17:39:23.436Z,11.50
2023-02-17T17:41:50.945Z,11.50
2023-02-17T17:44:18.483Z,11.50
2023-02-17T17:46:45.462Z,11.50
2023-02-17T17:49:14.555Z,11.50
2023-02-17T17:51:41.797Z,11.50
2023-02-17T17:54:08.949Z,11.50
2023-02-17T17:56:39.749Z,11.50
2023-02-17T17:59:06.807Z,11.50
2023-02-17T18:01:34.424Z,11.50
2023-02-17T18:04:02.179Z,11.50
2023-02-17T18:06:35.697Z,11.60
2023-02-17T18:09:07.898Z,11.60
2023-02-17T18:11:37.077Z,11.60
2023-02-17T18:14:10.144Z,11.60
2023-02-17T18:16:38.795Z,11.60
2023-02-17T18:19:07.909Z,11.60
2023-02-17T18:21:35.709Z,11.60
2023-02-17T18:24:05.149Z,11.60
2023-02-17T18:26:32.613Z,11.60
2023-02-17T18:29:00.028Z,11.60
2023-02-17T18:31:29.511Z,11.50
2023-02-17T18:34:01.293Z,11.50
2023-02-17T18:36:28.436Z,11.40
2023-02-17T18:38:57.529Z,11.30
2023-02-17T18:41:33.329Z,11.20
2023-02-17T18:44:05.138Z,11.10
2023-02-17T18:46:33.330Z,11.00
2023-02-17T18:49:00.452Z,10.90
2023-02-17T18:51:27.791Z,10.90
2023-02-17T21:08:06.464Z,9.30
2023-02-17T21:10:35.751Z,9.20
2023-02-17T21:13:02.649Z,9.20
2023-02-17T21:15:29.766Z,9.20
2023-02-17T21:17:56.778Z,9.20
2023-02-17T21:20:23.953Z,9.20
2023-02-17T21:22:51.140Z,9.10
2023-02-17T21:25:18.133Z,9.10
2023-02-17T21:27:45.548Z,9.10
2023-02-17T21:30:13.848Z,9.10
2023-02-17T21:32:43.612Z,9.10
2023-02-17T21:35:12.987Z,9.10
2023-02-17T21:37:40.189Z,9.00
2023-02-17T21:40:08.610Z,9.00
2023-02-17T21:42:55.973Z,9.00
2023-02-17T21:45:23.700Z,9.00
2023-02-17T21:47:51.041Z,9.00
2023-02-17T21:50:18.817Z,8.90
2023-02-17T21:52:45.728Z,8.90
2023-02-17T21:55:12.648Z,8.90
2023-02-17T21:57:41.602Z,8.90
2023-02-17T22:00:09.171Z,8.90
2023-02-17T22:02:44.397Z,8.80
2023-02-17T22:05:11.412Z,8.80
2023-02-17T22:07:38.286Z,8.80
2023-02-17T22:10:07.917Z,8.80
2023-02-17T22:12:40.417Z,8.70
2023-02-17T22:15:07.744Z,8.80
2023-02-17T22:17:35.481Z,8.70
2023-02-17T22:20:03.757Z,8.70
2023-02-17T22:22:30.868Z,8.70
2023-02-17T22:24:57.817Z,8.70
2023-02-17T22:27:24.904Z,8.70
2023-02-17T22:29:51.800Z,8.70
2023-02-17T22:32:18.677Z,8.70
2023-02-17T22:34:45.588Z,8.70
2023-02-17T22:37:12.434Z,8.70
2023-02-17T22:39:40.305Z,8.70
2023-02-17T22:42:09.628Z,8.70
2023-02-17T22:44:37.281Z,8.70
2023-02-17T22:47:04.381Z,8.70
2023-02-17T22:49:33.490Z,8.60
2023-02-17T22:52:04.863Z,8.60
2023-02-17T22:54:31.881Z,8.50
2023-02-17T22:56:59.016Z,8.50
2023-02-17T22:59:26.440Z,8.50
2023-02-17T23:01:53.524Z,8.50
2023-02-17T23:04:20.413Z,8.50
2023-02-17T23:06:47.273Z,8.50
2023-02-17T23:09:17.140Z,8.50
2023-02-17T23:11:55.236Z,8.50
2023-02-17T23:14:28.435Z,8.40
2023-02-17T23:16:59.230Z,8.40
2023-02-17T23:19:26.889Z,8.40
2023-02-17T23:21:58.829Z,8.40
2023-02-17T23:24:51.346Z,8.40
2023-02-17T23:27:18.245Z,8.40
2023-02-17T23:29:48.104Z,8.40
2023-02-17T23:32:17.153Z,8.40
2023-02-17T23:34:43.978Z,8.40
2023-02-17T23:37:10.823Z,8.40
2023-02-17T23:39:38.163Z,8.40
2023-02-17T23:42:05.143Z,8.30
2023-02-17T23:44:31.939Z,8.30
2023-02-17T23:46:58.744Z,8.30
2023-02-17T23:49:25.606Z,8.30
2023-02-17T23:51:52.435Z,8.30
2023-02-17T23:54:21.434Z,8.30
2023-02-17T23:56:55.217Z,8.30
2023-02-17T23:59:22.120Z,8.30
